createdAt,value
2022-07-26T00:04:52.860Z,101197.16
2022-07-26T00:07:42.166Z,101198.28
2022-07-26T00:15:40.898Z,101194.63
2022-07-26T00:18:12.123Z,101193.34
2022-07-26T00:20:43.297Z,101188.50
2022-07-26T00:23:11.912Z,101182.13
2022-07-26T00:25:40.330Z,101185.66
2022-07-26T00:28:09.673Z,101193.03
2022-07-26T00:30:41.136Z,101190.34
2022-07-26T00:33:09.525Z,101190.50
2022-07-26T00:35:41.406Z,101192.31
2022-07-26T00:38:09.965Z,101202.53
2022-07-26T00:40:41.101Z,101199.28
2022-07-26T00:43:09.344Z,101187.22
2022-07-26T00:45:41.052Z,101193.19
2022-07-26T00:48:09.809Z,101186.69
2022-07-26T00:50:43.526Z,101183.31
2022-07-26T00:53:11.925Z,101190.94
2022-07-26T00:55:40.924Z,101192.22
2022-07-26T00:58:10.370Z,101184.28
2022-07-26T01:00:41.815Z,101192.50
2022-07-26T01:08:39.893Z,101187.53
2022-07-26T01:11:08.144Z,101182.44
2022-07-26T01:14:08.783Z,101189.09
2022-07-26T01:16:40.801Z,101191.09
2022-07-26T01:19:12.070Z,101191.19
2022-07-26T01:21:40.444Z,101190.34
2022-07-26T01:24:11.662Z,101179.88
2022-07-26T01:26:40.060Z,101198.69
2022-07-26T01:29:12.310Z,101196.28
2022-07-26T01:31:40.799Z,101196.84
2022-07-26T01:34:12.179Z,101198.97
2022-07-26T01:36:40.636Z,101200.38
2022-07-26T01:39:12.024Z,101209.97
2022-07-26T01:41:40.248Z,101198.47
2022-07-26T01:44:09.106Z,101197.94
2022-07-26T01:46:40.616Z,101201.88
2022-07-26T01:49:11.953Z,101203.25
2022-07-26T01:51:40.228Z,101201.84
2022-07-26T01:54:12.494Z,101205.38
2022-07-26T01:56:41.534Z,101201.69
2022-07-26T01:59:11.120Z,101201.31
2022-07-26T02:01:40.468Z,101198.63
2022-07-26T02:04:41.594Z,101202.00
2022-07-26T02:07:13.030Z,101196.78
2022-07-26T02:09:41.900Z,101208.63
2022-07-26T02:12:10.367Z,101210.91
2022-07-26T02:14:43.356Z,101216.81
2022-07-26T02:17:12.377Z,101215.66
2022-07-26T02:19:41.635Z,101216.91
2022-07-26T02:22:10.146Z,101212.34
2022-07-26T02:24:41.675Z,101216.41
2022-07-26T02:27:12.984Z,101214.13
2022-07-26T02:29:41.453Z,101223.41
2022-07-26T02:32:12.624Z,101226.50
2022-07-26T02:34:40.552Z,101222.91
2022-07-26T02:37:11.697Z,101236.88
2022-07-26T02:39:42.471Z,101237.41
2022-07-26T02:42:10.753Z,101237.78
2022-07-26T02:44:42.488Z,101242.56
2022-07-26T02:47:12.758Z,101236.75
2022-07-26T02:49:41.068Z,101241.78
2022-07-26T02:52:09.540Z,101252.91
2022-07-26T02:54:40.869Z,101258.75
2022-07-26T02:57:11.718Z,101245.16
2022-07-26T02:59:39.960Z,101246.78
2022-07-26T03:02:13.451Z,101247.16
2022-07-26T03:04:41.657Z,101248.25
2022-07-26T03:07:12.077Z,101244.84
2022-07-26T03:09:40.331Z,101257.28
2022-07-26T03:12:08.947Z,101248.25
2022-07-26T03:14:40.387Z,101260.34
2022-07-26T03:17:09.070Z,101259.75
2022-07-26T03:19:37.462Z,101266.44
2022-07-26T03:22:08.375Z,101264.97
2022-07-26T03:24:39.746Z,101264.38
2022-07-26T03:27:10.988Z,101269.00
2022-07-26T03:29:39.162Z,101272.91
2022-07-26T03:32:10.818Z,101271.47
2022-07-26T03:34:39.357Z,101276.94
2022-07-26T03:37:07.957Z,101278.28
2022-07-26T03:43:11.884Z,101292.44
2022-07-26T03:45:42.095Z,101289.25
2022-07-26T03:48:12.811Z,101292.19
2022-07-26T03:50:45.491Z,101308.53
2022-07-26T03:53:13.784Z,101299.63
2022-07-26T03:56:10.366Z,101307.06
2022-07-26T03:58:50.486Z,101312.66
2022-07-26T04:01:18.815Z,101315.47
2022-07-26T04:03:53.050Z,101316.53
2022-07-26T04:06:28.934Z,101320.22
2022-07-26T04:09:08.101Z,101325.69
2022-07-26T04:12:12.706Z,101326.16
2022-07-26T04:14:52.663Z,101325.81
2022-07-26T04:17:21.017Z,101322.25
2022-07-26T04:19:55.369Z,101334.91
2022-07-26T04:22:33.694Z,101329.94
2022-07-26T04:25:08.514Z,101332.84
2022-07-26T04:27:41.165Z,101338.44
2022-07-26T04:30:14.784Z,101337.69
2022-07-26T04:32:46.693Z,101344.88
2022-07-26T04:35:16.078Z,101351.06
2022-07-26T04:37:45.384Z,101351.06
2022-07-26T04:40:21.433Z,101354.72
2022-07-26T04:42:51.470Z,101355.72
2022-07-26T04:45:20.588Z,101355.84
2022-07-26T04:47:55.873Z,101366.66
2022-07-26T04:50:29.865Z,101371.91
2022-07-26T04:53:05.716Z,101372.63
2022-07-26T04:55:37.916Z,101376.25
2022-07-26T04:58:11.188Z,101379.06
2022-07-26T05:03:28.095Z,101384.53
2022-07-26T05:05:56.383Z,101376.84
2022-07-26T05:08:24.652Z,101370.78
2022-07-26T05:11:10.621Z,101369.16
2022-07-26T05:13:41.199Z,101381.78
2022-07-26T05:16:11.564Z,101385.56
2022-07-26T05:18:45.644Z,101391.88
2022-07-26T05:21:17.939Z,101403.88
2022-07-26T05:23:46.176Z,101407.66
2022-07-26T05:26:14.556Z,101417.38
2022-07-26T05:28:43.679Z,101419.34
2022-07-26T05:31:16.037Z,101423.81
2022-07-26T05:33:44.389Z,101412.28
2022-07-26T05:36:13.706Z,101411.44
2022-07-26T05:38:41.897Z,101394.38
2022-07-26T05:41:10.294Z,101393.53
2022-07-26T05:43:41.570Z,101386.34
2022-07-26T05:46:11.687Z,101392.81
2022-07-26T05:48:43.493Z,101384.13
2022-07-26T05:51:14.658Z,101380.84
2022-07-26T05:53:43.362Z,101389.00
2022-07-26T05:56:13.078Z,101383.00
2022-07-26T05:58:41.260Z,101379.59
2022-07-26T06:01:09.520Z,101385.06
2022-07-26T06:03:40.493Z,101391.25
2022-07-26T06:06:09.299Z,101398.22
2022-07-26T06:08:37.806Z,101393.72
2022-07-26T06:11:09.198Z,101390.31
2022-07-26T06:13:37.510Z,101385.78
2022-07-26T06:16:09.085Z,101381.53
2022-07-26T06:18:40.259Z,101376.41
2022-07-26T06:21:08.862Z,101366.66
2022-07-26T06:23:37.536Z,101382.72
2022-07-26T06:26:06.688Z,101392.69
2022-07-26T06:28:38.379Z,101403.38
2022-07-26T06:31:09.776Z,101399.00
2022-07-26T06:33:41.196Z,101392.69
2022-07-26T06:36:09.425Z,101398.16
2022-07-26T06:38:40.724Z,101398.25
2022-07-26T06:41:11.690Z,101396.91
2022-07-26T06:43:41.242Z,101400.41
2022-07-26T06:46:09.546Z,101405.66
2022-07-26T06:48:40.227Z,101412.00
2022-07-26T06:51:23.901Z,101413.78
2022-07-26T06:53:52.180Z,101409.31
2022-07-26T06:59:12.009Z,101417.34
2022-07-26T07:01:58.290Z,101403.31
2022-07-26T07:04:35.014Z,101385.66
2022-07-26T07:07:05.936Z,101389.72
2022-07-26T07:09:37.497Z,101388.97
2022-07-26T07:12:10.261Z,101381.69
2022-07-26T07:14:39.873Z,101379.78
2022-07-26T07:17:13.194Z,101402.00
2022-07-26T07:19:43.234Z,101414.78
2022-07-26T07:22:12.878Z,101423.00
2022-07-26T07:24:42.170Z,101426.53
2022-07-26T07:27:11.066Z,101439.81
2022-07-26T07:29:41.458Z,101453.91
2022-07-26T07:32:18.517Z,101441.53
2022-07-26T07:34:49.644Z,101430.81
2022-07-26T07:37:21.939Z,101435.94
2022-07-26T07:39:51.284Z,101425.47
2022-07-26T07:42:28.562Z,101439.81
2022-07-26T07:44:58.816Z,101442.38
2022-07-26T07:47:27.046Z,101442.47
2022-07-26T07:49:55.337Z,101451.47
2022-07-26T07:52:44.298Z,101456.91
2022-07-26T07:55:37.092Z,101456.41
2022-07-26T07:58:05.473Z,101455.78
2022-07-26T08:00:40.317Z,101446.25
2022-07-26T08:03:08.678Z,101436.44
2022-07-26T08:05:40.407Z,101430.75
2022-07-26T08:08:08.997Z,101427.63
2022-07-26T08:10:49.001Z,101415.09
2022-07-26T08:13:38.960Z,101408.44
2022-07-26T08:16:10.455Z,101406.53
2022-07-26T08:18:49.068Z,101395.06
2022-07-26T08:21:33.640Z,101375.16
2022-07-26T08:24:07.301Z,101393.28
2022-07-26T08:26:42.103Z,101420.06
2022-07-26T08:29:10.532Z,101417.84
2022-07-26T08:31:40.725Z,101425.47
2022-07-26T08:34:09.017Z,101440.75
2022-07-26T08:36:54.932Z,101457.78
2022-07-26T08:39:41.648Z,101456.06
2022-07-26T08:42:22.834Z,101458.75
2022-07-26T08:44:57.412Z,101462.84
2022-07-26T08:47:50.271Z,101453.09
2022-07-26T08:50:36.921Z,101446.03
2022-07-26T08:53:10.265Z,101443.69
2022-07-26T08:58:32.188Z,101434.94
2022-07-26T09:01:10.192Z,101427.25
2022-07-26T09:03:41.014Z,101415.06
2022-07-26T09:06:28.638Z,101414.41
2022-07-26T09:09:13.472Z,101424.38
2022-07-26T09:11:41.647Z,101411.22
2022-07-26T09:14:10.081Z,101397.97
2022-07-26T09:16:40.312Z,101388.97
2022-07-26T09:19:24.591Z,101395.06
2022-07-26T09:22:09.964Z,101395.81
2022-07-26T09:24:55.867Z,101386.09
2022-07-26T09:33:47.765Z,101401.03
2022-07-26T09:36:16.468Z,101403.72
2022-07-26T09:38:53.373Z,101400.19
2022-07-26T09:42:17.452Z,101422.53
2022-07-26T09:44:48.043Z,101442.44
2022-07-26T09:47:16.783Z,101455.72
2022-07-26T09:50:03.168Z,101448.53
2022-07-26T09:52:38.938Z,101438.91
2022-07-26T09:55:09.688Z,101439.03
2022-07-26T09:57:38.561Z,101446.94
2022-07-26T10:00:07.868Z,101434.34
2022-07-26T10:02:36.418Z,101405.66
2022-07-26T10:05:07.440Z,101405.28
2022-07-26T10:07:39.659Z,101414.13
2022-07-26T10:10:18.084Z,101407.06
2022-07-26T10:12:55.901Z,101395.97
2022-07-26T10:15:44.316Z,101399.16
2022-07-26T10:18:40.727Z,101409.63
2022-07-26T10:21:18.038Z,101406.00
2022-07-26T10:23:52.019Z,101410.19
2022-07-26T10:26:36.377Z,101419.16
2022-07-26T10:29:27.739Z,101415.88
2022-07-26T10:32:04.758Z,101425.09
2022-07-26T10:34:38.448Z,101433.31
2022-07-26T10:37:11.741Z,101449.25
2022-07-26T10:39:40.791Z,101455.44
2022-07-26T10:42:11.984Z,101444.75
2022-07-26T10:47:35.453Z,101451.63
2022-07-26T10:50:07.310Z,101437.53
2022-07-26T10:52:38.675Z,101438.69
2022-07-26T10:55:08.801Z,101422.75
2022-07-26T10:57:45.950Z,101419.25
2022-07-26T11:00:17.590Z,101423.63
2022-07-26T11:02:52.647Z,101412.94
2022-07-26T11:05:22.561Z,101394.44
2022-07-26T11:07:54.315Z,101401.59
2022-07-26T11:10:35.248Z,101397.75
2022-07-26T11:13:12.639Z,101405.44
2022-07-26T11:16:09.146Z,101395.56
2022-07-26T11:18:39.764Z,101397.34
2022-07-26T11:21:18.312Z,101404.28
2022-07-26T11:23:52.357Z,101402.06
2022-07-26T11:26:31.924Z,101395.31
2022-07-26T11:29:06.952Z,101392.16
2022-07-26T11:31:51.471Z,101392.38
2022-07-26T11:34:37.255Z,101386.38
2022-07-26T11:37:06.515Z,101371.41
2022-07-26T11:39:37.633Z,101366.59
2022-07-26T11:42:12.654Z,101372.75
2022-07-26T11:44:51.441Z,101373.66
2022-07-26T11:47:39.762Z,101373.59
2022-07-26T11:50:21.959Z,101375.56
2022-07-26T11:53:21.467Z,101406.38
2022-07-26T11:56:04.960Z,101435.56
2022-07-26T11:58:37.152Z,101437.47
2022-07-26T12:01:05.588Z,101425.41
2022-07-26T12:03:46.728Z,101425.94
2022-07-26T12:06:19.980Z,101441.75
2022-07-26T12:08:56.120Z,101444.78
2022-07-26T12:11:27.279Z,101433.16
2022-07-26T12:14:05.625Z,101435.03
2022-07-26T12:16:41.308Z,101447.13
2022-07-26T12:19:27.485Z,101458.03
2022-07-26T12:22:12.340Z,101447.75
2022-07-26T12:24:49.544Z,101452.06
2022-07-26T12:27:35.129Z,101461.25
2022-07-26T12:30:06.416Z,101455.19
2022-07-26T12:35:20.260Z,101454.00
2022-07-26T12:50:45.593Z,101479.22
2022-07-26T12:53:43.288Z,101488.97
2022-07-26T12:56:44.109Z,101497.63
2022-07-26T13:03:45.524Z,101496.31
2022-07-26T13:13:45.635Z,101509.16
2022-07-26T13:19:45.479Z,101501.47
2022-07-26T13:25:58.764Z,101504.91
2022-07-26T13:34:43.648Z,101512.69
2022-07-26T13:37:40.176Z,101533.97
2022-07-26T13:40:36.277Z,101535.69
2022-07-26T13:43:19.333Z,101516.78
2022-07-26T14:02:08.377Z,101520.63
2022-07-26T14:05:04.768Z,101526.81
2022-07-26T15:32:33.794Z,101583.81
2022-07-26T15:35:02.786Z,101580.47
2022-07-26T15:37:31.047Z,101581.66
2022-07-26T15:39:59.586Z,101568.66
2022-07-26T15:42:30.955Z,101561.44
2022-07-26T15:45:03.823Z,101562.38
2022-07-26T15:48:13.764Z,101570.28
2022-07-26T15:50:59.456Z,101576.00
2022-07-26T15:53:35.347Z,101569.38
2022-07-26T15:56:04.037Z,101577.09
2022-07-26T15:58:33.687Z,101584.13
2022-07-26T16:01:01.991Z,101579.88
2022-07-26T16:03:30.416Z,101575.47
2022-07-26T16:06:05.729Z,101577.09
2022-07-26T16:08:43.073Z,101563.41
2022-07-26T16:11:26.153Z,101565.41
2022-07-26T16:14:01.825Z,101557.84
2022-07-26T16:16:31.384Z,101559.97
2022-07-26T16:18:59.829Z,101561.47
2022-07-26T16:21:31.173Z,101564.97
2022-07-26T16:24:06.487Z,101563.91
2022-07-26T16:26:35.758Z,101556.94
2022-07-26T16:29:05.507Z,101558.13
2022-07-26T16:31:34.165Z,101562.06
2022-07-26T16:34:03.643Z,101560.75
2022-07-26T16:36:32.629Z,101558.94
2022-07-26T16:39:00.978Z,101563.00
2022-07-26T16:41:30.033Z,101565.03
2022-07-26T16:43:58.329Z,101554.63
2022-07-26T16:46:29.667Z,101565.53
2022-07-26T16:48:58.111Z,101572.97
2022-07-26T16:51:32.263Z,101584.44
2022-07-26T16:54:00.659Z,101595.66
2022-07-26T16:56:29.072Z,101587.75
2022-07-26T16:59:32.972Z,101593.88
2022-07-26T17:02:16.001Z,101588.16
2022-07-26T17:05:05.307Z,101592.66
2022-07-26T17:07:33.578Z,101584.19
2022-07-26T17:10:26.662Z,101591.97
2022-07-26T17:13:35.256Z,101600.28
2022-07-26T17:16:03.600Z,101600.09
2022-07-26T17:18:34.523Z,101604.03
2022-07-26T17:21:06.460Z,101600.88
2022-07-26T17:23:37.375Z,101602.97
2022-07-26T17:26:09.397Z,101602.13
2022-07-26T17:31:13.692Z,101603.59
2022-07-26T17:34:29.798Z,101598.13
2022-07-26T17:37:30.868Z,101593.59
2022-07-26T17:46:28.018Z,101595.47
2022-07-26T17:48:59.422Z,101590.25
2022-07-26T17:51:27.767Z,101598.50
2022-07-26T17:53:56.020Z,101604.44
2022-07-26T17:56:24.311Z,101610.22
2022-07-26T17:58:58.191Z,101599.13
2022-07-26T18:01:26.953Z,101603.75
2022-07-26T18:03:55.358Z,101599.63
2022-07-26T18:06:23.665Z,101598.16
2022-07-26T18:08:52.295Z,101593.31
2022-07-26T18:11:22.612Z,101598.94
2022-07-26T18:13:51.037Z,101597.69
2022-07-26T18:16:28.094Z,101588.16
2022-07-26T18:18:56.597Z,101594.16
2022-07-26T18:21:29.018Z,101592.31
2022-07-26T18:24:15.942Z,101585.25
2022-07-26T18:26:48.136Z,101593.78
2022-07-26T18:29:28.127Z,101598.66
2022-07-26T18:31:59.482Z,101590.97
2022-07-26T18:34:28.132Z,101592.19
2022-07-26T18:36:56.437Z,101581.59
2022-07-26T18:39:32.611Z,101591.59
2022-07-26T18:42:01.969Z,101586.69
2022-07-26T18:44:30.478Z,101574.50
2022-07-26T18:46:58.776Z,101576.66
2022-07-26T18:49:31.040Z,101565.94
2022-07-26T18:52:08.285Z,101557.91
2022-07-26T18:55:04.875Z,101552.50
2022-07-26T19:19:28.202Z,101545.34
2022-07-26T19:22:35.863Z,101540.13
2022-07-26T19:31:58.679Z,101552.34
2022-07-26T19:34:36.438Z,101544.88
2022-07-26T19:54:58.552Z,101525.03
2022-07-26T19:57:27.288Z,101520.22
2022-07-26T19:59:58.931Z,101522.97
2022-07-26T20:02:28.220Z,101520.72
2022-07-26T20:04:59.850Z,101508.56
2022-07-26T20:07:57.454Z,101518.63
2022-07-26T20:10:39.343Z,101504.59
2022-07-26T20:13:19.917Z,101495.72
2022-07-26T20:15:55.669Z,101498.44
2022-07-26T20:18:32.044Z,101497.91
2022-07-26T20:21:01.234Z,101500.19
2022-07-26T20:23:29.973Z,101485.91
2022-07-26T20:26:00.907Z,101484.50
2022-07-26T20:33:26.688Z,101469.94
2022-07-26T20:35:59.890Z,101459.94
2022-07-26T20:38:32.786Z,101459.50
2022-07-26T20:41:01.414Z,101465.16
2022-07-26T20:49:18.130Z,101466.03
2022-07-26T20:55:34.006Z,101475.25
2022-07-26T20:57:58.808Z,101461.91
2022-07-26T21:00:32.293Z,101455.09
2022-07-26T21:09:08.902Z,101451.44
2022-07-26T21:16:59.562Z,101452.00
2022-07-26T21:20:03.502Z,101470.44
2022-07-26T21:31:37.247Z,101458.78
2022-07-26T21:34:05.889Z,101448.28
2022-07-26T21:37:24.489Z,101444.19
2022-07-26T21:40:00.716Z,101446.97
2022-07-26T21:42:29.950Z,101440.75
2022-07-26T21:44:58.202Z,101437.19
2022-07-26T21:47:26.571Z,101430.34
2022-07-26T21:49:58.164Z,101427.19
2022-07-26T21:55:10.572Z,101434.41
2022-07-26T21:57:58.591Z,101432.41
2022-07-26T22:03:58.562Z,101437.66
2022-07-26T22:06:26.889Z,101433.41
2022-07-26T22:08:58.121Z,101428.31
2022-07-26T22:11:59.677Z,101425.91
2022-07-26T22:14:27.557Z,101423.50
2022-07-26T22:16:58.548Z,101430.06
2022-07-26T22:19:29.822Z,101419.41
2022-07-26T22:21:58.130Z,101427.06
2022-07-26T22:24:29.602Z,101422.28
2022-07-26T22:26:57.861Z,101416.50
2022-07-26T22:29:39.952Z,101422.13
2022-07-26T22:32:37.335Z,101423.97
2022-07-26T22:35:05.973Z,101411.63
2022-07-26T22:37:35.074Z,101411.91
2022-07-26T22:40:03.671Z,101412.06
2022-07-26T22:42:34.330Z,101416.78
2022-07-26T22:45:03.295Z,101420.59
2022-07-26T22:47:39.051Z,101405.25
2022-07-26T22:50:27.676Z,101416.19
2022-07-26T22:52:58.126Z,101423.31
2022-07-26T22:55:30.379Z,101411.66
2022-07-26T22:57:58.814Z,101402.72
2022-07-26T23:00:27.663Z,101415.34
2022-07-26T23:02:58.623Z,101401.72
2022-07-26T23:05:45.480Z,101395.66
2022-07-26T23:11:28.859Z,101403.00
2022-07-26T23:14:01.355Z,101406.84
2022-07-26T23:16:29.754Z,101400.47
2022-07-26T23:18:58.004Z,101404.13
2022-07-26T23:21:28.779Z,101406.00
2022-07-26T23:23:59.789Z,101389.13
2022-07-26T23:26:27.592Z,101396.78
2022-07-26T23:28:59.135Z,101391.53
2022-07-26T23:31:30.395Z,101399.47
2022-07-26T23:33:58.619Z,101396.66
2022-07-26T23:36:29.924Z,101399.03
2022-07-26T23:39:00.093Z,101392.09
2022-07-26T23:41:28.960Z,101394.09
2022-07-26T23:43:59.987Z,101400.91
2022-07-26T23:46:31.123Z,101403.44
2022-07-26T23:48:59.720Z,101403.75
2022-07-26T23:51:28.450Z,101403.75
2022-07-26T23:53:59.737Z,101397.53
2022-07-26T23:56:27.970Z,101397.69
2022-07-26T23:58:59.243Z,101405.47
